Time;durP1;ratioP1;P1;durP2;ratioP2;P2;SDS_P1;SDS_P2;PMS_P1;PMS_P2;Temp;Humidity;BMP_temperature;BMP_pressure;BME280_temperature;BME280_humidity;BME280_pressure;Samples;Min_cycle;Max_cycle;Signal;HPM_P1;HPM_P2
2023/10/30 00:01:28;;;;;;;;;;;;;;;8.28;34.87;99369.59;5103034;28;19919;-56
2023/10/30 00:03:53;;;;;;;;;;;;;;;8.34;35.09;99365.25;5093879;28;19916;-57
2023/10/30 00:06:18;;;;;;;;;;;;;;;8.29;34.96;99362.38;5093794;28;19912;-57
2023/10/30 00:08:43;;;;;;;;;;;;;;;8.23;35.69;99358.69;5093974;28;19920;-57
2023/10/30 00:11:09;;;;;;;;;;;;;;;8.24;35.52;99362.97;5093741;28;19920;-58
2023/10/30 00:13:35;;;;;;;;;;;;;;;8.26;35.73;99358.25;5093966;28;19948;-58
2023/10/30 00:16:00;;;;;;;;;;;;;;;8.24;36.06;99360.31;5094296;28;20014;-56
2023/10/30 00:18:25;;;;;;;;;;;;;;;8.23;36.00;99357.88;5094048;28;19912;-57
2023/10/30 00:20:50;;;;;;;;;;;;;;;8.12;37.31;99352.09;5093607;28;19912;-56
2023/10/30 00:23:16;;;;;;;;;;;;;;;8.11;37.02;99357.63;5093799;28;19912;-58
2023/10/30 00:25:41;;;;;;;;;;;;;;;8.16;36.98;99360.53;5093508;28;19912;-58
2023/10/30 00:28:06;;;;;;;;;;;;;;;8.07;37.72;99357.22;5093769;28;20353;-57
2023/10/30 00:30:32;;;;;;;;;;;;;;;8.08;37.47;99358.06;5093071;28;20300;-56
2023/10/30 00:32:57;;;;;;;;;;;;;;;7.98;38.65;99358.44;5093797;28;19947;-56
2023/10/30 00:35:22;;;;;;;;;;;;;;;7.97;37.94;99354.13;5093257;28;19957;-54
2023/10/30 00:37:47;;;;;;;;;;;;;;;7.98;38.37;99354.94;5094097;28;19912;-56
2023/10/30 00:40:13;;;;;;;;;;;;;;;7.97;38.26;99356.81;5093605;28;19912;-56
2023/10/30 00:42:38;;;;;;;;;;;;;;;7.99;38.10;99351.28;5093242;28;19938;-57
2023/10/30 00:45:04;;;;;;;;;;;;;;;8.00;37.98;99352.91;5103860;28;19935;-56
2023/10/30 00:47:29;;;;;;;;;;;;;;;8.06;37.81;99352.91;5113950;28;19912;-57
2023/10/30 00:49:55;;;;;;;;;;;;;;;8.02;38.24;99340.16;5114037;28;20321;-57
2023/10/30 00:52:20;;;;;;;;;;;;;;;8.02;38.66;99348.16;5077630;28;20010;-57
2023/10/30 00:54:45;;;;;;;;;;;;;;;8.06;38.12;99341.38;5093028;28;19912;-57
2023/10/30 00:57:11;;;;;;;;;;;;;;;8.10;37.86;99345.31;5093497;28;19916;-56
2023/10/30 00:59:39;;;;;;;;;;;;;;;8.08;38.25;99339.34;5093454;28;20335;-56
2023/10/30 01:02:04;;;;;;;;;;;;;;;8.07;37.73;99346.53;5093108;28;20003;-57
2023/10/30 01:04:30;;;;;;;;;;;;;;;8.12;37.77;99338.72;5093621;28;20380;-54
2023/10/30 01:06:56;;;;;;;;;;;;;;;8.11;37.98;99341.59;5093725;28;19912;-54
2023/10/30 01:09:21;;;;;;;;;;;;;;;8.11;38.47;99336.25;5093341;28;19924;-57
2023/10/30 01:11:46;;;;;;;;;;;;;;;8.12;38.29;99336.03;5093056;28;19931;-56
2023/10/30 01:14:12;;;;;;;;;;;;;;;8.08;38.48;99334.81;5093356;28;19913;-55
2023/10/30 01:16:37;;;;;;;;;;;;;;;8.10;38.72;99334.59;5093295;28;20138;-55
2023/10/30 01:19:02;;;;;;;;;;;;;;;8.08;38.90;99326.78;5093414;28;20372;-57
2023/10/30 01:21:27;;;;;;;;;;;;;;;8.11;38.80;99333.56;5093108;28;19912;-57
2023/10/30 01:23:53;;;;;;;;;;;;;;;8.07;38.89;99333.16;5093467;28;20326;-56
2023/10/30 01:26:18;;;;;;;;;;;;;;;8.04;39.25;99332.72;5093052;28;19999;-57
2023/10/30 01:28:43;;;;;;;;;;;;;;;8.06;38.71;99322.66;5093431;28;19916;-58
2023/10/30 01:31:08;;;;;;;;;;;;;;;8.09;39.27;99328.41;5092830;28;20064;-58
2023/10/30 01:33:34;;;;;;;;;;;;;;;8.08;38.90;99325.97;5093142;28;19947;-58
2023/10/30 01:35:59;;;;;;;;;;;;;;;8.04;39.87;99330.06;5093234;28;20396;-58
2023/10/30 01:38:24;;;;;;;;;;;;;;;8.00;39.15;99318.97;5093022;28;19912;-57
2023/10/30 01:40:51;;;;;;;;;;;;;;;8.06;39.33;99314.63;5093780;28;19966;-57
2023/10/30 01:43:26;;;;;;;;;;;;;;;8.00;39.35;99323.50;5096654;28;20000;-58
2023/10/30 01:45:52;;;;;;;;;;;;;;;7.99;39.82;99324.53;5096504;28;19912;-57
2023/10/30 01:48:17;;;;;;;;;;;;;;;8.01;40.43;99314.44;5096386;28;19969;-57
2023/10/30 01:50:43;;;;;;;;;;;;;;;8.00;40.59;99307.44;5096950;28;19932;-56
2023/10/30 01:53:08;;;;;;;;;;;;;;;7.93;41.37;99313.63;5096597;28;19912;-57
2023/10/30 01:55:33;;;;;;;;;;;;;;;7.95;41.18;99303.53;5095875;28;19955;-57
2023/10/30 01:57:59;;;;;;;;;;;;;;;7.78;40.91;99307.63;5096466;28;19939;-56
2023/10/30 02:00:24;;;;;;;;;;;;;;;7.84;41.67;99309.50;5096440;28;20434;-58
2023/10/30 02:02:50;;;;;;;;;;;;;;;7.81;41.50;99309.91;5096036;28;20327;-58
2023/10/30 02:05:15;;;;;;;;;;;;;;;7.84;42.20;99309.50;5096284;28;20280;-55
2023/10/30 02:07:41;;;;;;;;;;;;;;;7.76;42.54;99309.69;5096068;28;20014;-57
2023/10/30 02:10:06;;;;;;;;;;;;;;;7.62;43.03;99310.72;5095901;28;19912;-54
2023/10/30 02:12:32;;;;;;;;;;;;;;;7.56;42.41;99313.16;5096316;28;19912;-56
2023/10/30 02:14:57;;;;;;;;;;;;;;;7.63;42.03;99307.00;5095903;28;19912;-53
2023/10/30 02:17:22;;;;;;;;;;;;;;;7.65;42.83;99297.78;5095936;28;19919;-53
2023/10/30 02:19:48;;;;;;;;;;;;;;;7.66;41.63;99304.75;5095997;28;19919;-55
2023/10/30 02:22:13;;;;;;;;;;;;;;;7.70;42.28;99305.97;5096112;28;20444;-57
2023/10/30 02:24:39;;;;;;;;;;;;;;;7.73;42.10;99302.09;5096112;28;19918;-54
2023/10/30 02:27:04;;;;;;;;;;;;;;;7.68;42.42;99294.66;5095745;28;20296;-57
2023/10/30 02:29:30;;;;;;;;;;;;;;;7.67;42.73;99303.72;5096082;28;20007;-57
2023/10/30 02:31:55;;;;;;;;;;;;;;;7.59;43.12;99300.41;5095600;28;19916;-55
2023/10/30 02:34:20;;;;;;;;;;;;;;;7.60;43.32;99291.38;5082550;28;19915;-57
2023/10/30 02:36:46;;;;;;;;;;;;;;;7.60;42.85;99296.72;5082837;28;20324;-56
2023/10/30 02:39:11;;;;;;;;;;;;;;;7.66;42.79;99295.91;5115976;28;19912;-57
2023/10/30 02:41:38;;;;;;;;;;;;;;;7.68;42.31;99297.34;5115973;28;19912;-57
2023/10/30 02:44:03;;;;;;;;;;;;;;;7.65;43.00;99280.91;5115821;28;20018;-57
2023/10/30 02:46:29;;;;;;;;;;;;;;;7.67;42.72;99301.06;5115977;28;19977;-56
2023/10/30 02:48:54;;;;;;;;;;;;;;;7.68;43.41;99291.19;5115688;28;19919;-58
2023/10/30 02:51:20;;;;;;;;;;;;;;;7.61;42.97;99277.81;5097807;28;19912;-57
2023/10/30 02:53:45;;;;;;;;;;;;;;;7.62;43.44;99286.66;5114443;28;20303;-57
2023/10/30 02:56:13;;;;;;;;;;;;;;;7.63;43.44;99286.44;5115330;28;19923;-56
2023/10/30 02:58:38;;;;;;;;;;;;;;;7.61;43.83;99293.03;5115671;28;19911;-54
2023/10/30 03:01:04;;;;;;;;;;;;;;;7.54;43.10;99290.31;5115810;28;19912;-54
2023/10/30 03:03:29;;;;;;;;;;;;;;;7.59;43.23;99292.41;5096365;28;19955;-56
2023/10/30 03:05:55;;;;;;;;;;;;;;;7.53;43.58;99294.84;5095223;28;19916;-54
2023/10/30 03:08:20;;;;;;;;;;;;;;;7.51;43.66;99294.25;5095018;28;19927;-55
2023/10/30 03:10:48;;;;;;;;;;;;;;;7.57;43.42;99293.41;5094556;28;19920;-54
2023/10/30 03:13:13;;;;;;;;;;;;;;;7.58;43.46;99286.25;5094609;28;19994;-56
2023/10/30 03:15:40;;;;;;;;;;;;;;;7.61;43.60;99285.81;5095034;28;20053;-53
2023/10/30 03:18:05;;;;;;;;;;;;;;;7.52;44.19;99287.88;5094706;28;20381;-57
2023/10/30 03:20:30;;;;;;;;;;;;;;;7.58;43.61;99280.91;5094730;28;19997;-56
2023/10/30 03:22:56;;;;;;;;;;;;;;;7.61;43.78;99280.47;5094445;28;20294;-58
2023/10/30 03:25:21;;;;;;;;;;;;;;;7.62;43.43;99267.97;5094517;28;19912;-56
2023/10/30 03:27:46;;;;;;;;;;;;;;;7.61;43.24;99282.34;5094548;28;20011;-55
2023/10/30 03:30:11;;;;;;;;;;;;;;;7.52;43.75;99277.19;5094495;28;19912;-56
2023/10/30 03:32:37;;;;;;;;;;;;;;;7.53;42.75;99272.66;5094615;28;20375;-58
2023/10/30 03:35:02;;;;;;;;;;;;;;;7.57;43.93;99266.69;5110917;28;19912;-58
2023/10/30 03:37:27;;;;;;;;;;;;;;;7.51;44.08;99266.72;5094615;28;20007;-57
2023/10/30 03:39:53;;;;;;;;;;;;;;;7.57;44.27;99271.22;5094386;28;20055;-57
2023/10/30 03:42:19;;;;;;;;;;;;;;;7.61;44.15;99272.47;5094337;28;19916;-57
2023/10/30 03:44:45;;;;;;;;;;;;;;;7.62;43.16;99266.09;5094381;28;19912;-58
2023/10/30 03:47:10;;;;;;;;;;;;;;;7.64;43.34;99273.91;5094219;28;19923;-58
2023/10/30 03:49:35;;;;;;;;;;;;;;;7.63;43.42;99267.72;5094079;28;19916;-55
2023/10/30 03:52:00;;;;;;;;;;;;;;;7.60;43.88;99268.16;5093918;28;19961;-56
2023/10/30 03:54:26;;;;;;;;;;;;;;;7.50;44.26;99260.56;5093707;28;19916;-57
2023/10/30 03:56:51;;;;;;;;;;;;;;;7.46;44.68;99269.97;5094064;28;19924;-55
2023/10/30 03:59:16;;;;;;;;;;;;;;;7.40;44.25;99260.09;5094349;28;19916;-57
2023/10/30 04:01:42;;;;;;;;;;;;;;;7.39;45.42;99263.78;5093785;28;19912;-57
2023/10/30 04:04:07;;;;;;;;;;;;;;;7.32;45.60;99265.66;5093440;28;19912;-58
2023/10/30 04:06:34;;;;;;;;;;;;;;;7.30;45.63;99271.19;5093535;28;19916;-56
2023/10/30 04:09:01;;;;;;;;;;;;;;;7.23;45.67;99266.84;5093819;28;19975;-57
2023/10/30 04:11:26;;;;;;;;;;;;;;;7.10;46.24;99263.13;5093697;28;19924;-58
2023/10/30 04:13:51;;;;;;;;;;;;;;;7.08;46.59;99278.50;5075668;28;19923;-53
2023/10/30 04:16:17;;;;;;;;;;;;;;;7.12;46.19;99277.09;5093536;28;19912;-56
2023/10/30 04:18:42;;;;;;;;;;;;;;;7.08;46.55;99281.19;5093442;28;19919;-54
2023/10/30 04:21:08;;;;;;;;;;;;;;;7.06;45.70;99285.91;5093684;28;20009;-57
2023/10/30 04:23:33;;;;;;;;;;;;;;;7.08;45.90;99285.72;5093976;28;20265;-57
2023/10/30 04:25:58;;;;;;;;;;;;;;;7.14;45.79;99290.25;5093798;28;19999;-54
2023/10/30 04:28:23;;;;;;;;;;;;;;;7.13;45.64;99284.09;5093505;28;20296;-55
2023/10/30 04:30:49;;;;;;;;;;;;;;;7.25;45.48;99289.66;5110112;28;19912;-56
2023/10/30 04:33:14;;;;;;;;;;;;;;;7.18;46.79;99297.63;5113943;28;19912;-57
2023/10/30 04:35:39;;;;;;;;;;;;;;;7.24;45.86;99287.19;5086458;28;19912;-58
2023/10/30 04:38:05;;;;;;;;;;;;;;;7.22;45.81;99282.03;5093643;28;19912;-56
2023/10/30 04:40:31;;;;;;;;;;;;;;;7.24;46.68;99279.16;5093717;28;19916;-57
2023/10/30 04:42:56;;;;;;;;;;;;;;;7.21;46.39;99277.75;5075483;28;20326;-57
2023/10/30 04:45:21;;;;;;;;;;;;;;;7.14;46.04;99290.25;5093536;28;19912;-58
2023/10/30 04:47:46;;;;;;;;;;;;;;;7.12;47.37;99294.97;5075140;28;20364;-58
2023/10/30 04:50:12;;;;;;;;;;;;;;;7.16;46.81;99286.34;5093387;28;19959;-57
2023/10/30 04:52:37;;;;;;;;;;;;;;;7.14;46.56;99284.91;5093461;28;19912;-56
2023/10/30 04:55:03;;;;;;;;;;;;;;;6.89;48.27;99290.78;5092946;28;20387;-55
2023/10/30 04:57:28;;;;;;;;;;;;;;;6.81;48.72;99285.59;5093447;28;19912;-58
2023/10/30 04:59:53;;;;;;;;;;;;;;;6.87;48.56;99289.31;5093343;28;19916;-57
2023/10/30 05:02:19;;;;;;;;;;;;;;;6.93;48.17;99293.88;5092752;28;20403;-58
2023/10/30 05:04:44;;;;;;;;;;;;;;;6.92;48.41;99294.88;5093149;28;19998;-58
2023/10/30 05:07:09;;;;;;;;;;;;;;;6.91;47.90;99282.53;5093056;28;20431;-58
2023/10/30 05:09:36;;;;;;;;;;;;;;;6.91;48.08;99291.38;5092989;28;20338;-59
2023/10/30 05:12:01;;;;;;;;;;;;;;;6.90;47.59;99270.22;5092653;28;19931;-56
2023/10/30 05:14:26;;;;;;;;;;;;;;;6.87;47.70;99276.81;5093154;28;19916;-56
2023/10/30 05:16:52;;;;;;;;;;;;;;;6.85;48.58;99270.81;5077029;28;20364;-58
2023/10/30 05:19:17;;;;;;;;;;;;;;;6.88;48.79;99280.28;5097069;28;19916;-57
2023/10/30 05:21:43;;;;;;;;;;;;;;;6.84;48.02;99284.38;5097248;28;19912;-58
2023/10/30 05:24:08;;;;;;;;;;;;;;;6.92;49.40;99279.69;5096935;28;20018;-54
2023/10/30 05:26:33;;;;;;;;;;;;;;;6.84;47.79;99285.19;5109100;28;19912;-59
2023/10/30 05:28:58;;;;;;;;;;;;;;;6.96;49.00;99301.44;5117224;28;19962;-58
2023/10/30 05:31:24;;;;;;;;;;;;;;;7.00;48.15;99292.03;5117434;28;20380;-58
2023/10/30 05:33:49;;;;;;;;;;;;;;;6.96;48.43;99290.78;5117280;28;20292;-57
2023/10/30 05:36:14;;;;;;;;;;;;;;;7.01;48.03;99300.88;5102844;28;19912;-58
2023/10/30 05:38:39;;;;;;;;;;;;;;;7.02;48.81;99297.16;5096775;28;19981;-59
2023/10/30 05:41:05;;;;;;;;;;;;;;;6.98;47.80;99288.72;5096442;28;19912;-57
2023/10/30 05:43:30;;;;;;;;;;;;;;;6.97;48.29;99285.25;5096899;28;19923;-58
2023/10/30 05:45:56;;;;;;;;;;;;;;;6.97;48.52;99289.78;5096806;28;20365;-56
2023/10/30 05:48:21;;;;;;;;;;;;;;;7.03;48.67;99288.97;5096561;28;19916;-58
2023/10/30 05:50:46;;;;;;;;;;;;;;;7.08;47.94;99302.53;5078261;28;19919;-59
2023/10/30 05:53:12;;;;;;;;;;;;;;;7.06;47.55;99296.59;5096567;28;19919;-59
2023/10/30 05:55:37;;;;;;;;;;;;;;;7.05;48.31;99302.94;5095838;28;19955;-57
2023/10/30 05:58:02;;;;;;;;;;;;;;;7.09;47.56;99301.50;5096806;28;19912;-58
2023/10/30 06:00:29;;;;;;;;;;;;;;;7.16;48.10;99297.00;5096392;28;19933;-58
2023/10/30 06:02:54;;;;;;;;;;;;;;;7.09;47.52;99301.50;5081786;28;20285;-59
2023/10/30 06:05:21;;;;;;;;;;;;;;;7.01;47.93;99299.03;5076379;28;19912;-55
2023/10/30 06:07:47;;;;;;;;;;;;;;;6.97;48.18;99311.94;5090417;28;19916;-57
2023/10/30 06:10:13;;;;;;;;;;;;;;;7.03;49.22;99313.00;5095881;28;19926;-57
2023/10/30 06:12:38;;;;;;;;;;;;;;;7.08;48.01;99307.88;5096095;28;19916;-59
2023/10/30 06:15:04;;;;;;;;;;;;;;;7.01;48.95;99300.88;5096208;28;19958;-59
2023/10/30 06:17:29;;;;;;;;;;;;;;;6.96;48.06;99326.31;5096153;28;19912;-54
2023/10/30 06:19:55;;;;;;;;;;;;;;;6.90;49.35;99315.59;5095854;28;19919;-57
2023/10/30 06:22:21;;;;;;;;;;;;;;;6.95;48.33;99322.00;5104186;28;19928;-57
2023/10/30 06:24:46;;;;;;;;;;;;;;;6.92;48.45;99332.25;5113492;28;20303;-59
2023/10/30 06:27:11;;;;;;;;;;;;;;;6.94;49.18;99333.69;5095354;28;19964;-58
2023/10/30 06:29:37;;;;;;;;;;;;;;;7.00;48.64;99336.59;5095101;28;19917;-56
2023/10/30 06:32:02;;;;;;;;;;;;;;;6.97;49.20;99330.63;5096085;28;19912;-58
2023/10/30 06:34:27;;;;;;;;;;;;;;;6.98;49.06;99331.44;5095624;28;19919;-55
2023/10/30 06:36:53;;;;;;;;;;;;;;;6.94;49.11;99327.53;5095935;28;19927;-54
2023/10/30 06:39:20;;;;;;;;;;;;;;;6.96;48.49;99345.00;5095846;28;19919;-58
2023/10/30 06:41:46;;;;;;;;;;;;;;;6.99;48.25;99343.78;5095675;28;19920;-58
2023/10/30 06:44:11;;;;;;;;;;;;;;;7.05;49.31;99339.50;5077628;28;19912;-55
2023/10/30 06:46:36;;;;;;;;;;;;;;;7.04;48.97;99340.50;5095337;28;19918;-58
2023/10/30 06:49:01;;;;;;;;;;;;;;;7.05;49.24;99348.31;5095670;28;20011;-57
2023/10/30 06:51:27;;;;;;;;;;;;;;;7.05;48.62;99339.50;5106710;28;19912;-57
2023/10/30 06:53:52;;;;;;;;;;;;;;;7.01;48.99;99347.06;5115206;28;19915;-58
2023/10/30 06:56:17;;;;;;;;;;;;;;;7.04;48.74;99346.69;5115125;28;19935;-57
2023/10/30 06:58:42;;;;;;;;;;;;;;;7.00;48.29;99356.09;5100244;28;19912;-59
2023/10/30 07:01:08;;;;;;;;;;;;;;;7.03;48.65;99361.03;5094938;28;19912;-59
2023/10/30 07:03:33;;;;;;;;;;;;;;;7.00;48.22;99348.06;5085927;28;19916;-57
2023/10/30 07:05:58;;;;;;;;;;;;;;;7.05;49.81;99356.31;5094979;28;19912;-56
2023/10/30 07:08:23;;;;;;;;;;;;;;;7.01;49.47;99352.41;5094800;28;19916;-57
2023/10/30 07:10:49;;;;;;;;;;;;;;;7.06;48.43;99349.16;5094813;28;20390;-58
2023/10/30 07:13:14;;;;;;;;;;;;;;;7.18;49.08;99360.91;5094700;28;20393;-57
2023/10/30 07:15:39;;;;;;;;;;;;;;;7.15;48.30;99363.97;5094844;28;19912;-56
2023/10/30 07:18:04;;;;;;;;;;;;;;;7.17;49.15;99360.09;5098886;28;19912;-59
2023/10/30 07:20:30;;;;;;;;;;;;;;;7.18;48.88;99352.88;5115122;28;19996;-57
2023/10/30 07:22:58;;;;;;;;;;;;;;;7.16;49.04;99363.75;5115446;28;19924;-59
2023/10/30 07:25:23;;;;;;;;;;;;;;;7.05;48.76;99361.66;5106930;28;19916;-59
2023/10/30 07:27:48;;;;;;;;;;;;;;;7.05;49.25;99369.66;5094562;28;20276;-58
2023/10/30 07:30:14;;;;;;;;;;;;;;;6.94;48.32;99373.72;5094759;28;19947;-56
2023/10/30 07:32:40;;;;;;;;;;;;;;;6.97;49.66;99364.50;5094653;28;19912;-57
2023/10/30 07:35:06;;;;;;;;;;;;;;;6.95;49.30;99385.22;5094317;28;20451;-59
2023/10/30 07:37:32;;;;;;;;;;;;;;;6.94;49.08;99386.25;5094439;28;19916;-58
2023/10/30 07:39:57;;;;;;;;;;;;;;;6.97;49.95;99376.00;5094256;28;20007;-58
2023/10/30 07:42:22;;;;;;;;;;;;;;;7.01;48.91;99380.94;5093921;28;19939;-57
2023/10/30 07:44:48;;;;;;;;;;;;;;;7.05;49.34;99374.19;5094165;28;19962;-59
2023/10/30 07:47:13;;;;;;;;;;;;;;;7.09;49.76;99370.09;5094078;28;20425;-57
2023/10/30 07:49:38;;;;;;;;;;;;;;;7.08;49.36;99368.47;5094172;28;19916;-58
2023/10/30 07:52:04;;;;;;;;;;;;;;;7.02;49.89;99388.75;5093894;28;19919;-56
2023/10/30 07:54:29;;;;;;;;;;;;;;;7.02;49.31;99382.59;5093693;28;19998;-57
2023/10/30 07:56:54;;;;;;;;;;;;;;;7.06;49.63;99390.00;5093732;28;19947;-58
2023/10/30 07:59:20;;;;;;;;;;;;;;;7.07;49.64;99383.63;5093991;28;19916;-57
2023/10/30 08:01:45;;;;;;;;;;;;;;;7.06;49.68;99397.22;5093702;28;20326;-59
2023/10/30 08:04:11;;;;;;;;;;;;;;;7.01;49.88;99386.28;5093777;28;19995;-58
2023/10/30 08:06:37;;;;;;;;;;;;;;;6.95;49.39;99383.38;5094132;28;20042;-58
2023/10/30 08:09:02;;;;;;;;;;;;;;;7.02;49.68;99391.44;5094163;28;19916;-57
2023/10/30 08:11:27;;;;;;;;;;;;;;;7.08;49.51;99387.97;5093581;28;19920;-58
2023/10/30 08:13:53;;;;;;;;;;;;;;;7.05;49.97;99390.22;5093832;28;20288;-56
2023/10/30 08:16:18;;;;;;;;;;;;;;;6.98;49.49;99383.00;5114158;28;20004;-58
2023/10/30 08:18:43;;;;;;;;;;;;;;;7.01;49.91;99384.44;5114086;28;19911;-56
2023/10/30 08:21:08;;;;;;;;;;;;;;;7.09;49.32;99384.25;5105632;28;19947;-58
2023/10/30 08:23:36;;;;;;;;;;;;;;;7.10;49.23;99398.44;5093418;28;20007;-58
2023/10/30 08:26:02;;;;;;;;;;;;;;;7.06;49.54;99394.53;5093706;28;20249;-58
2023/10/30 08:28:27;;;;;;;;;;;;;;;7.13;49.73;99384.69;5093718;28;19926;-57
2023/10/30 08:30:52;;;;;;;;;;;;;;;7.12;49.88;99385.72;5093360;28;19922;-57
2023/10/30 08:33:18;;;;;;;;;;;;;;;7.10;49.53;99388.59;5093446;28;19950;-58
2023/10/30 08:35:46;;;;;;;;;;;;;;;6.94;49.40;99387.06;5075500;28;19912;-59
2023/10/30 08:38:11;;;;;;;;;;;;;;;6.84;50.26;99399.13;5093739;28;19950;-57
2023/10/30 08:40:36;;;;;;;;;;;;;;;6.81;50.75;99396.84;5093205;28;20284;-58
2023/10/30 08:43:02;;;;;;;;;;;;;;;6.90;50.22;99403.69;5093318;28;19916;-57
2023/10/30 08:45:27;;;;;;;;;;;;;;;6.91;50.43;99402.63;5093682;28;19912;-54
2023/10/30 08:47:52;;;;;;;;;;;;;;;6.97;50.44;99415.22;5093287;28;20464;-56
2023/10/30 08:50:18;;;;;;;;;;;;;;;7.13;50.17;99412.25;5100690;28;19912;-56
2023/10/30 08:52:43;;;;;;;;;;;;;;;7.17;50.20;99410.00;5118006;28;19912;-55
2023/10/30 08:55:08;;;;;;;;;;;;;;;7.22;50.16;99417.41;5114319;28;20010;-57
2023/10/30 08:57:34;;;;;;;;;;;;;;;7.28;50.26;99419.28;5097304;28;20292;-58
2023/10/30 08:59:59;;;;;;;;;;;;;;;7.33;50.02;99420.31;5096978;28;19958;-58
2023/10/30 09:02:24;;;;;;;;;;;;;;;7.36;50.52;99416.44;5086672;28;19958;-57
2023/10/30 09:04:49;;;;;;;;;;;;;;;7.33;49.26;99414.97;5092499;28;19912;-56
2023/10/30 09:07:16;;;;;;;;;;;;;;;7.34;49.92;99413.97;5078183;28;20020;-57
2023/10/30 09:09:41;;;;;;;;;;;;;;;7.29;48.70;99415.59;5097157;28;20018;-58
2023/10/30 09:12:07;;;;;;;;;;;;;;;7.34;49.48;99421.16;5097404;28;20007;-58
2023/10/30 09:14:32;;;;;;;;;;;;;;;7.39;49.25;99417.88;5097386;28;20007;-58
2023/10/30 09:16:57;;;;;;;;;;;;;;;7.40;49.61;99420.38;5097187;28;19919;-58
2023/10/30 09:19:22;;;;;;;;;;;;;;;7.40;49.97;99417.69;5097244;28;19912;-59
2023/10/30 09:21:48;;;;;;;;;;;;;;;7.36;49.52;99427.13;5097110;28;19973;-58
2023/10/30 09:24:13;;;;;;;;;;;;;;;7.44;49.15;99426.94;5097126;28;19956;-58
2023/10/30 09:26:38;;;;;;;;;;;;;;;7.46;49.59;99426.75;5096899;28;20266;-56
2023/10/30 09:29:04;;;;;;;;;;;;;;;7.53;49.13;99423.09;5112586;28;19916;-57
2023/10/30 09:31:30;;;;;;;;;;;;;;;7.52;49.41;99428.63;5096775;28;19919;-56
2023/10/30 09:33:57;;;;;;;;;;;;;;;7.50;48.84;99428.84;5096540;28;20053;-54
2023/10/30 09:36:22;;;;;;;;;;;;;;;7.33;49.38;99408.81;5096651;28;20002;-57
2023/10/30 09:38:47;;;;;;;;;;;;;;;7.21;49.54;99421.13;5097025;28;19912;-57
2023/10/30 09:41:14;;;;;;;;;;;;;;;7.06;49.78;99429.25;5096486;28;19911;-58
2023/10/30 09:43:40;;;;;;;;;;;;;;;7.11;50.47;99440.97;5096458;28;19912;-58
2023/10/30 09:46:06;;;;;;;;;;;;;;;7.11;50.99;99424.97;5096458;28;20002;-57
2023/10/30 09:48:32;;;;;;;;;;;;;;;7.05;50.42;99420.38;5096110;28;19955;-57
2023/10/30 09:50:58;;;;;;;;;;;;;;;7.15;50.96;99434.22;5085343;28;19978;-58
2023/10/30 09:53:24;;;;;;;;;;;;;;;7.19;51.21;99429.31;5096643;28;20019;-54
2023/10/30 09:55:50;;;;;;;;;;;;;;;7.17;50.48;99410.00;5095875;28;20339;-58
2023/10/30 09:58:15;;;;;;;;;;;;;;;7.03;50.81;99413.59;5096101;28;19920;-58
2023/10/30 10:00:44;;;;;;;;;;;;;;;7.03;50.73;99398.41;5077973;28;19916;-56
2023/10/30 10:03:09;;;;;;;;;;;;;;;6.91;51.40;99414.16;5094729;28;19958;-55
2023/10/30 10:05:35;;;;;;;;;;;;;;;6.87;52.06;99398.72;5096134;28;19912;-56
2023/10/30 10:08:00;;;;;;;;;;;;;;;6.88;51.21;99398.53;5110210;28;19915;-58
2023/10/30 10:10:25;;;;;;;;;;;;;;;6.86;51.20;99405.09;5116041;28;19919;-58
2023/10/30 10:12:51;;;;;;;;;;;;;;;6.91;52.24;99423.97;5116704;28;19912;-58
2023/10/30 10:15:17;;;;;;;;;;;;;;;6.92;50.98;99417.66;5116492;28;20428;-57
2023/10/30 10:17:44;;;;;;;;;;;;;;;7.00;52.12;99414.00;5115905;28;19918;-58
2023/10/30 10:20:10;;;;;;;;;;;;;;;7.02;51.52;99411.94;5116497;28;19911;-58
2023/10/30 10:22:36;;;;;;;;;;;;;;;7.16;52.28;99419.84;5116084;28;19982;-58
2023/10/30 10:25:02;;;;;;;;;;;;;;;7.27;51.52;99406.97;5111185;28;20007;-57
2023/10/30 10:27:28;;;;;;;;;;;;;;;7.35;51.89;99407.63;5095797;28;19997;-54
2023/10/30 10:29:56;;;;;;;;;;;;;;;7.41;52.46;99397.16;5095419;28;19971;-57
2023/10/30 10:32:26;;;;;;;;;;;;;;;7.38;51.65;99397.56;5095860;28;19935;-56
2023/10/30 10:34:52;;;;;;;;;;;;;;;7.34;51.71;99397.13;5095921;28;19920;-56
2023/10/30 10:37:17;;;;;;;;;;;;;;;7.34;52.22;99397.94;5095467;28;19912;-57
2023/10/30 10:39:47;;;;;;;;;;;;;;;7.20;51.54;99400.75;5095549;28;20007;-56
2023/10/30 10:42:13;;;;;;;;;;;;;;;6.96;52.16;99393.03;5095287;28;19919;-57
2023/10/30 10:44:39;;;;;;;;;;;;;;;6.96;51.88;99401.06;5095218;28;20040;-57
2023/10/30 10:47:05;;;;;;;;;;;;;;;7.03;52.74;99406.41;5095307;28;19948;-58
2023/10/30 10:49:30;;;;;;;;;;;;;;;7.12;52.56;99393.75;5094881;28;20290;-57
2023/10/30 10:51:56;;;;;;;;;;;;;;;7.10;51.49;99385.94;5076795;28;20399;-59
2023/10/30 10:54:26;;;;;;;;;;;;;;;7.03;51.87;99360.22;5094467;28;20368;-58
2023/10/30 10:56:52;;;;;;;;;;;;;;;6.91;51.42;99390.13;5111248;28;19922;-57
2023/10/30 10:59:21;;;;;;;;;;;;;;;6.95;52.58;99394.06;5095420;28;19912;-58
2023/10/30 11:01:49;;;;;;;;;;;;;;;7.06;52.67;99384.69;5094497;28;19912;-58
2023/10/30 11:04:16;;;;;;;;;;;;;;;7.04;52.21;99391.22;5108447;28;19918;-55
2023/10/30 11:06:46;;;;;;;;;;;;;;;7.12;52.37;99391.88;5115163;28;19999;-57
2023/10/30 11:09:17;;;;;;;;;;;;;;;7.18;52.13;99392.94;5115015;28;20006;-58
2023/10/30 11:11:59;;;;;;;;;;;;;;;7.25;52.34;99367.09;5114732;28;19924;-57
2023/10/30 11:14:42;;;;;;;;;;;;;;;7.02;50.99;99379.91;5114680;28;20429;-57
2023/10/30 11:17:07;;;;;;;;;;;;;;;6.90;51.96;99372.47;5114844;28;19912;-57
2023/10/30 11:19:32;;;;;;;;;;;;;;;6.90;52.44;99387.66;5114985;28;19919;-56
2023/10/30 11:21:59;;;;;;;;;;;;;;;6.92;52.71;99373.09;5115273;28;19912;-54
2023/10/30 11:24:40;;;;;;;;;;;;;;;6.90;52.25;99383.13;5114872;28;19919;-57
2023/10/30 11:27:25;;;;;;;;;;;;;;;6.98;52.37;99384.81;5074322;28;19962;-58
2023/10/30 11:30:00;;;;;;;;;;;;;;;7.00;52.76;99380.09;5073963;28;19916;-58
2023/10/30 11:32:29;;;;;;;;;;;;;;;6.95;52.92;99396.72;5073973;28;20285;-57
2023/10/30 11:34:55;;;;;;;;;;;;;;;6.93;52.39;99393.44;5077053;28;20388;-57
2023/10/30 11:37:23;;;;;;;;;;;;;;;6.88;51.98;99395.84;5094306;28;19986;-56
2023/10/30 11:39:51;;;;;;;;;;;;;;;6.88;52.13;99395.03;5094074;28;19912;-59
2023/10/30 11:42:22;;;;;;;;;;;;;;;6.92;52.31;99389.09;5094010;28;19912;-56
2023/10/30 11:44:49;;;;;;;;;;;;;;;6.97;52.85;99386.66;5093804;28;19923;-57
2023/10/30 11:47:14;;;;;;;;;;;;;;;6.98;51.63;99391.00;5094242;28;20433;-57
2023/10/30 11:49:40;;;;;;;;;;;;;;;6.96;52.56;99395.72;5094378;28;19951;-57
2023/10/30 11:52:12;;;;;;;;;;;;;;;6.91;51.68;99395.47;5111039;28;20372;-55
2023/10/30 11:54:39;;;;;;;;;;;;;;;6.81;52.41;99378.16;5129775;27;19977;-57
2023/10/30 11:57:05;;;;;;;;;;;;;;;6.74;52.87;99386.97;5103403;28;19965;-58
2023/10/30 11:59:31;;;;;;;;;;;;;;;6.74;52.50;99383.44;5099875;28;19985;-55
2023/10/30 12:02:01;;;;;;;;;;;;;;;6.75;52.46;99390.44;5107990;28;20368;-57
2023/10/30 12:04:26;;;;;;;;;;;;;;;6.78;52.52;99384.72;5093996;28;19912;-58
2023/10/30 12:06:52;;;;;;;;;;;;;;;6.78;53.31;99376.72;5093986;28;19920;-56
2023/10/30 12:09:17;;;;;;;;;;;;;;;6.85;53.03;99385.56;5058856;28;19923;-57
2023/10/30 12:11:43;;;;;;;;;;;;;;;6.87;53.03;99377.38;5093664;28;19973;-57
2023/10/30 12:14:08;;;;;;;;;;;;;;;6.93;53.09;99379.28;5093835;28;19957;-56
2023/10/30 12:16:34;;;;;;;;;;;;;;;6.98;52.71;99374.16;5093968;28;19919;-58
2023/10/30 12:18:59;;;;;;;;;;;;;;;6.82;51.29;99375.31;5093808;28;19919;-57
2023/10/30 12:21:25;;;;;;;;;;;;;;;6.85;53.46;99366.88;5093725;28;20402;-57
2023/10/30 12:23:52;;;;;;;;;;;;;;;6.85;53.07;99369.56;5093418;28;19948;-58
2023/10/30 12:26:19;;;;;;;;;;;;;;;6.88;52.66;99368.34;5093139;28;19912;-55
2023/10/30 12:28:44;;;;;;;;;;;;;;;6.91;53.00;99367.94;5093824;28;19923;-57
2023/10/30 12:31:15;;;;;;;;;;;;;;;7.01;52.67;99367.59;5075966;28;19912;-55
2023/10/30 12:33:40;;;;;;;;;;;;;;;6.91;52.92;99374.13;5093506;28;19916;-56
2023/10/30 12:36:06;;;;;;;;;;;;;;;6.75;52.45;99353.09;5093354;28;19912;-56
2023/10/30 12:38:31;;;;;;;;;;;;;;;6.76;52.54;99355.56;5093848;28;19912;-55
2023/10/30 12:40:56;;;;;;;;;;;;;;;6.80;52.98;99361.34;5093804;28;19992;-53
2023/10/30 12:43:22;;;;;;;;;;;;;;;6.67;53.79;99362.06;5093865;28;19912;-57
2023/10/30 12:45:47;;;;;;;;;;;;;;;6.76;53.31;99366.25;5093955;28;20006;-52
2023/10/30 12:48:12;;;;;;;;;;;;;;;6.67;53.64;99363.94;5093479;28;19918;-57
2023/10/30 12:50:38;;;;;;;;;;;;;;;6.56;53.53;99354.63;5097877;28;19912;-55